sensor_id;sensor_type;location;lat;lon;timestamp;P1;durP1;ratioP1;P2;durP2;ratioP2
2722;SDS011;1369;53.216;10.396;2023-08-12T00:00:50;3.30;;;2.37;;
2722;SDS011;1369;53.216;10.396;2023-08-12T00:03:16;4.63;;;1.90;;
2722;SDS011;1369;53.216;10.396;2023-08-12T00:05:41;1.60;;;1.50;;
2722;SDS011;1369;53.216;10.396;2023-08-12T00:08:08;1.97;;;1.63;;
2722;SDS011;1369;53.216;10.396;2023-08-12T00:10:34;1.80;;;1.53;;
2722;SDS011;1369;53.216;10.396;2023-08-12T00:13:00;1.90;;;1.70;;
2722;SDS011;1369;53.216;10.396;2023-08-12T00:15:25;2.50;;;2.20;;
2722;SDS011;1369;53.216;10.396;2023-08-12T00:17:51;2.27;;;2.07;;
2722;SDS011;1369;53.216;10.396;2023-08-12T00:20:17;3.00;;;1.90;;
2722;SDS011;1369;53.216;10.396;2023-08-12T00:22:43;3.43;;;2.40;;
2722;SDS011;1369;53.216;10.396;2023-08-12T00:25:09;2.83;;;2.13;;
2722;SDS011;1369;53.216;10.396;2023-08-12T00:27:35;2.70;;;2.50;;
2722;SDS011;1369;53.216;10.396;2023-08-12T00:30:02;2.77;;;2.47;;
2722;SDS011;1369;53.216;10.396;2023-08-12T00:32:29;2.07;;;1.83;;
2722;SDS011;1369;53.216;10.396;2023-08-12T00:34:55;3.40;;;3.10;;
2722;SDS011;1369;53.216;10.396;2023-08-12T00:37:21;2.47;;;2.00;;
2722;SDS011;1369;53.216;10.396;2023-08-12T00:39:46;2.10;;;1.80;;
2722;SDS011;1369;53.216;10.396;2023-08-12T00:42:12;1.93;;;1.80;;
2722;SDS011;1369;53.216;10.396;2023-08-12T00:44:38;2.63;;;2.13;;
2722;SDS011;1369;53.216;10.396;2023-08-12T00:47:03;3.03;;;2.20;;
2722;SDS011;1369;53.216;10.396;2023-08-12T00:49:30;2.10;;;1.90;;
2722;SDS011;1369;53.216;10.396;2023-08-12T00:51:57;5.10;;;3.70;;
2722;SDS011;1369;53.216;10.396;2023-08-12T00:54:24;2.67;;;2.37;;
2722;SDS011;1369;53.216;10.396;2023-08-12T00:56:51;2.50;;;2.03;;
2722;SDS011;1369;53.216;10.396;2023-08-12T00:59:18;8.33;;;2.10;;
2722;SDS011;1369;53.216;10.396;2023-08-12T01:01:45;5.70;;;2.17;;
2722;SDS011;1369;53.216;10.396;2023-08-12T01:04:12;2.43;;;2.10;;
2722;SDS011;1369;53.216;10.396;2023-08-12T01:06:38;2.93;;;2.10;;
2722;SDS011;1369;53.216;10.396;2023-08-12T01:09:05;1.87;;;1.37;;
2722;SDS011;1369;53.216;10.396;2023-08-12T01:14:33;1.60;;;1.50;;
2722;SDS011;1369;53.216;10.396;2023-08-12T01:17:08;4.20;;;2.23;;
2722;SDS011;1369;53.216;10.396;2023-08-12T01:19:37;2.03;;;1.83;;
2722;SDS011;1369;53.216;10.396;2023-08-12T01:22:04;2.13;;;1.93;;
2722;SDS011;1369;53.216;10.396;2023-08-12T01:24:39;2.23;;;2.00;;
2722;SDS011;1369;53.216;10.396;2023-08-12T01:27:07;2.43;;;2.23;;
2722;SDS011;1369;53.216;10.396;2023-08-12T01:29:35;3.20;;;1.77;;
2722;SDS011;1369;53.216;10.396;2023-08-12T01:34:57;2.17;;;1.97;;
2722;SDS011;1369;53.216;10.396;2023-08-12T01:37:39;2.87;;;2.57;;
2722;SDS011;1369;53.216;10.396;2023-08-12T01:40:07;2.20;;;1.90;;
2722;SDS011;1369;53.216;10.396;2023-08-12T01:42:36;2.20;;;1.90;;
2722;SDS011;1369;53.216;10.396;2023-08-12T01:45:04;1.87;;;1.67;;
2722;SDS011;1369;53.216;10.396;2023-08-12T01:47:31;4.43;;;1.70;;
2722;SDS011;1369;53.216;10.396;2023-08-12T01:49:57;3.90;;;2.50;;
2722;SDS011;1369;53.216;10.396;2023-08-12T01:52:23;2.00;;;1.60;;
2722;SDS011;1369;53.216;10.396;2023-08-12T01:54:49;2.10;;;1.87;;
2722;SDS011;1369;53.216;10.396;2023-08-12T01:57:15;1.73;;;1.63;;
2722;SDS011;1369;53.216;10.396;2023-08-12T01:59:41;2.10;;;1.80;;
2722;SDS011;1369;53.216;10.396;2023-08-12T02:02:09;1.97;;;1.57;;
2722;SDS011;1369;53.216;10.396;2023-08-12T02:04:35;2.93;;;2.73;;
2722;SDS011;1369;53.216;10.396;2023-08-12T02:07:02;2.07;;;1.87;;
2722;SDS011;1369;53.216;10.396;2023-08-12T02:09:28;2.33;;;1.87;;
2722;SDS011;1369;53.216;10.396;2023-08-12T02:11:54;1.73;;;1.20;;
2722;SDS011;1369;53.216;10.396;2023-08-12T02:14:20;3.43;;;2.23;;
2722;SDS011;1369;53.216;10.396;2023-08-12T02:16:45;3.27;;;2.57;;
2722;SDS011;1369;53.216;10.396;2023-08-12T02:19:11;1.97;;;1.77;;
2722;SDS011;1369;53.216;10.396;2023-08-12T02:21:37;5.03;;;2.77;;
2722;SDS011;1369;53.216;10.396;2023-08-12T02:24:02;1.67;;;1.27;;
2722;SDS011;1369;53.216;10.396;2023-08-12T02:26:28;2.17;;;1.97;;
2722;SDS011;1369;53.216;10.396;2023-08-12T02:28:54;2.40;;;2.20;;
2722;SDS011;1369;53.216;10.396;2023-08-12T02:31:19;3.07;;;2.80;;
2722;SDS011;1369;53.216;10.396;2023-08-12T02:33:45;7.90;;;2.27;;
2722;SDS011;1369;53.216;10.396;2023-08-12T02:36:11;2.93;;;2.63;;
2722;SDS011;1369;53.216;10.396;2023-08-12T02:38:36;3.20;;;2.57;;
2722;SDS011;1369;53.216;10.396;2023-08-12T02:41:02;2.63;;;2.23;;
2722;SDS011;1369;53.216;10.396;2023-08-12T02:43:27;1.87;;;1.67;;
2722;SDS011;1369;53.216;10.396;2023-08-12T02:45:53;2.43;;;1.83;;
2722;SDS011;1369;53.216;10.396;2023-08-12T02:48:19;2.40;;;2.20;;
2722;SDS011;1369;53.216;10.396;2023-08-12T02:50:44;2.40;;;2.00;;
2722;SDS011;1369;53.216;10.396;2023-08-12T02:53:10;1.93;;;1.70;;
2722;SDS011;1369;53.216;10.396;2023-08-12T02:55:36;2.83;;;2.17;;
2722;SDS011;1369;53.216;10.396;2023-08-12T02:58:03;2.63;;;1.80;;
2722;SDS011;1369;53.216;10.396;2023-08-12T03:00:29;2.50;;;2.30;;
2722;SDS011;1369;53.216;10.396;2023-08-12T03:02:55;2.20;;;1.73;;
2722;SDS011;1369;53.216;10.396;2023-08-12T03:05:21;1.67;;;1.53;;
2722;SDS011;1369;53.216;10.396;2023-08-12T03:07:47;2.00;;;1.77;;
2722;SDS011;1369;53.216;10.396;2023-08-12T03:10:13;1.70;;;1.40;;
2722;SDS011;1369;53.216;10.396;2023-08-12T03:12:39;1.77;;;1.67;;
2722;SDS011;1369;53.216;10.396;2023-08-12T03:15:07;2.00;;;1.83;;
2722;SDS011;1369;53.216;10.396;2023-08-12T03:17:33;2.87;;;1.80;;
2722;SDS011;1369;53.216;10.396;2023-08-12T03:19:59;2.27;;;2.10;;
2722;SDS011;1369;53.216;10.396;2023-08-12T03:22:25;2.43;;;1.60;;
2722;SDS011;1369;53.216;10.396;2023-08-12T03:24:53;3.57;;;1.67;;
2722;SDS011;1369;53.216;10.396;2023-08-12T03:27:18;2.00;;;1.80;;
2722;SDS011;1369;53.216;10.396;2023-08-12T03:29:44;2.00;;;1.60;;
2722;SDS011;1369;53.216;10.396;2023-08-12T03:32:10;2.43;;;2.23;;
2722;SDS011;1369;53.216;10.396;2023-08-12T03:34:35;2.67;;;2.47;;
2722;SDS011;1369;53.216;10.396;2023-08-12T03:37:01;2.17;;;1.90;;
2722;SDS011;1369;53.216;10.396;2023-08-12T03:39:27;2.50;;;2.30;;
2722;SDS011;1369;53.216;10.396;2023-08-12T03:41:52;3.30;;;2.33;;
2722;SDS011;1369;53.216;10.396;2023-08-12T03:44:18;2.13;;;1.93;;
2722;SDS011;1369;53.216;10.396;2023-08-12T03:46:44;2.80;;;2.60;;
2722;SDS011;1369;53.216;10.396;2023-08-12T03:49:10;2.53;;;2.23;;
2722;SDS011;1369;53.216;10.396;2023-08-12T03:51:35;2.33;;;1.83;;
2722;SDS011;1369;53.216;10.396;2023-08-12T03:54:01;2.93;;;2.70;;
2722;SDS011;1369;53.216;10.396;2023-08-12T03:56:28;2.80;;;2.00;;
2722;SDS011;1369;53.216;10.396;2023-08-12T03:58:54;4.90;;;2.60;;
2722;SDS011;1369;53.216;10.396;2023-08-12T04:01:20;1.90;;;1.63;;
2722;SDS011;1369;53.216;10.396;2023-08-12T04:03:46;3.00;;;1.80;;
2722;SDS011;1369;53.216;10.396;2023-08-12T04:06:12;2.33;;;2.07;;
2722;SDS011;1369;53.216;10.396;2023-08-12T04:08:38;1.70;;;1.40;;
2722;SDS011;1369;53.216;10.396;2023-08-12T04:11:03;2.00;;;1.63;;
2722;SDS011;1369;53.216;10.396;2023-08-12T04:13:29;1.97;;;1.57;;
2722;SDS011;1369;53.216;10.396;2023-08-12T04:15:55;10.30;;;2.87;;
2722;SDS011;1369;53.216;10.396;2023-08-12T04:18:21;2.77;;;2.57;;
2722;SDS011;1369;53.216;10.396;2023-08-12T04:20:50;2.23;;;2.03;;
2722;SDS011;1369;53.216;10.396;2023-08-12T04:23:18;3.00;;;2.43;;
2722;SDS011;1369;53.216;10.396;2023-08-12T04:25:47;2.00;;;1.73;;
2722;SDS011;1369;53.216;10.396;2023-08-12T04:28:14;4.30;;;2.43;;
2722;SDS011;1369;53.216;10.396;2023-08-12T04:30:44;1.90;;;1.70;;
2722;SDS011;1369;53.216;10.396;2023-08-12T04:33:13;2.50;;;2.30;;
2722;SDS011;1369;53.216;10.396;2023-08-12T04:35:40;2.17;;;2.00;;
2722;SDS011;1369;53.216;10.396;2023-08-12T04:38:06;2.50;;;1.87;;
2722;SDS011;1369;53.216;10.396;2023-08-12T04:40:32;2.50;;;2.30;;
2722;SDS011;1369;53.216;10.396;2023-08-12T04:43:00;2.47;;;2.27;;
2722;SDS011;1369;53.216;10.396;2023-08-12T04:45:27;1.87;;;1.60;;
2722;SDS011;1369;53.216;10.396;2023-08-12T04:47:53;3.23;;;2.33;;
2722;SDS011;1369;53.216;10.396;2023-08-12T04:50:19;1.63;;;1.47;;
2722;SDS011;1369;53.216;10.396;2023-08-12T04:52:44;2.50;;;2.30;;
2722;SDS011;1369;53.216;10.396;2023-08-12T04:55:11;2.07;;;1.70;;
2722;SDS011;1369;53.216;10.396;2023-08-12T04:57:37;2.30;;;2.10;;
2722;SDS011;1369;53.216;10.396;2023-08-12T05:00:03;5.23;;;1.63;;
2722;SDS011;1369;53.216;10.396;2023-08-12T05:02:30;2.43;;;2.23;;
2722;SDS011;1369;53.216;10.396;2023-08-12T05:04:56;2.20;;;2.00;;
2722;SDS011;1369;53.216;10.396;2023-08-12T05:07:21;3.17;;;2.10;;
2722;SDS011;1369;53.216;10.396;2023-08-12T05:09:47;2.30;;;2.10;;
2722;SDS011;1369;53.216;10.396;2023-08-12T05:12:13;2.37;;;2.03;;
2722;SDS011;1369;53.216;10.396;2023-08-12T05:14:39;2.60;;;2.23;;
2722;SDS011;1369;53.216;10.396;2023-08-12T05:17:06;2.00;;;1.80;;
2722;SDS011;1369;53.216;10.396;2023-08-12T05:19:32;2.60;;;2.40;;
2722;SDS011;1369;53.216;10.396;2023-08-12T05:21:58;4.13;;;2.23;;
2722;SDS011;1369;53.216;10.396;2023-08-12T05:24:24;2.77;;;2.53;;
2722;SDS011;1369;53.216;10.396;2023-08-12T05:26:49;2.87;;;2.50;;
2722;SDS011;1369;53.216;10.396;2023-08-12T05:29:15;2.17;;;1.97;;
2722;SDS011;1369;53.216;10.396;2023-08-12T05:31:41;2.23;;;2.03;;
2722;SDS011;1369;53.216;10.396;2023-08-12T05:34:06;2.33;;;1.83;;
2722;SDS011;1369;53.216;10.396;2023-08-12T05:36:32;3.03;;;2.43;;
2722;SDS011;1369;53.216;10.396;2023-08-12T05:38:58;4.03;;;2.30;;
2722;SDS011;1369;53.216;10.396;2023-08-12T05:41:24;3.87;;;2.70;;
2722;SDS011;1369;53.216;10.396;2023-08-12T05:43:50;2.50;;;2.30;;
2722;SDS011;1369;53.216;10.396;2023-08-12T05:46:16;3.20;;;2.90;;
2722;SDS011;1369;53.216;10.396;2023-08-12T05:48:42;2.70;;;2.20;;
2722;SDS011;1369;53.216;10.396;2023-08-12T05:51:07;2.53;;;1.70;;
2722;SDS011;1369;53.216;10.396;2023-08-12T05:53:33;3.03;;;2.60;;
2722;SDS011;1369;53.216;10.396;2023-08-12T05:55:59;2.47;;;2.27;;
2722;SDS011;1369;53.216;10.396;2023-08-12T05:58:25;9.07;;;2.80;;
2722;SDS011;1369;53.216;10.396;2023-08-12T06:00:50;2.27;;;2.07;;
2722;SDS011;1369;53.216;10.396;2023-08-12T06:03:16;5.20;;;2.67;;
2722;SDS011;1369;53.216;10.396;2023-08-12T06:05:43;2.37;;;2.10;;
2722;SDS011;1369;53.216;10.396;2023-08-12T06:08:11;2.40;;;2.10;;
2722;SDS011;1369;53.216;10.396;2023-08-12T06:10:37;4.33;;;2.57;;
2722;SDS011;1369;53.216;10.396;2023-08-12T06:13:03;3.90;;;2.40;;
2722;SDS011;1369;53.216;10.396;2023-08-12T06:15:29;2.80;;;2.03;;
2722;SDS011;1369;53.216;10.396;2023-08-12T06:17:56;2.73;;;2.53;;
2722;SDS011;1369;53.216;10.396;2023-08-12T06:20:25;2.57;;;2.17;;
2722;SDS011;1369;53.216;10.396;2023-08-12T06:22:51;2.33;;;1.70;;
2722;SDS011;1369;53.216;10.396;2023-08-12T06:25:17;2.50;;;2.30;;
2722;SDS011;1369;53.216;10.396;2023-08-12T06:27:43;2.37;;;2.17;;
2722;SDS011;1369;53.216;10.396;2023-08-12T06:30:10;3.13;;;2.83;;
2722;SDS011;1369;53.216;10.396;2023-08-12T06:32:36;2.30;;;2.10;;
2722;SDS011;1369;53.216;10.396;2023-08-12T06:35:02;2.50;;;2.30;;
2722;SDS011;1369;53.216;10.396;2023-08-12T06:37:28;2.50;;;2.30;;
2722;SDS011;1369;53.216;10.396;2023-08-12T06:39:54;2.63;;;2.43;;
2722;SDS011;1369;53.216;10.396;2023-08-12T06:42:20;2.17;;;1.93;;
2722;SDS011;1369;53.216;10.396;2023-08-12T06:44:54;2.77;;;2.40;;
2722;SDS011;1369;53.216;10.396;2023-08-12T06:47:21;6.13;;;2.40;;
2722;SDS011;1369;53.216;10.396;2023-08-12T06:49:47;2.30;;;2.10;;
2722;SDS011;1369;53.216;10.396;2023-08-12T06:52:13;2.60;;;2.40;;
2722;SDS011;1369;53.216;10.396;2023-08-12T06:54:39;2.60;;;2.40;;
2722;SDS011;1369;53.216;10.396;2023-08-12T06:57:05;2.90;;;2.17;;
2722;SDS011;1369;53.216;10.396;2023-08-12T06:59:30;3.60;;;3.13;;
2722;SDS011;1369;53.216;10.396;2023-08-12T07:01:56;3.30;;;2.97;;
2722;SDS011;1369;53.216;10.396;2023-08-12T07:04:22;3.70;;;2.23;;
2722;SDS011;1369;53.216;10.396;2023-08-12T07:06:48;3.13;;;2.83;;
2722;SDS011;1369;53.216;10.396;2023-08-12T07:09:13;3.50;;;3.30;;
2722;SDS011;1369;53.216;10.396;2023-08-12T07:11:39;2.70;;;2.47;;
2722;SDS011;1369;53.216;10.396;2023-08-12T07:14:05;4.33;;;2.90;;
2722;SDS011;1369;53.216;10.396;2023-08-12T07:16:30;2.67;;;2.47;;
2722;SDS011;1369;53.216;10.396;2023-08-12T07:18:56;3.47;;;3.17;;
2722;SDS011;1369;53.216;10.396;2023-08-12T07:21:25;3.50;;;2.90;;
2722;SDS011;1369;53.216;10.396;2023-08-12T07:23:50;4.13;;;3.10;;
2722;SDS011;1369;53.216;10.396;2023-08-12T07:26:16;5.77;;;3.10;;
2722;SDS011;1369;53.216;10.396;2023-08-12T07:28:41;4.17;;;3.47;;
2722;SDS011;1369;53.216;10.396;2023-08-12T07:31:07;2.40;;;2.17;;
2722;SDS011;1369;53.216;10.396;2023-08-12T07:33:33;5.40;;;3.43;;
2722;SDS011;1369;53.216;10.396;2023-08-12T07:35:59;2.67;;;2.47;;
2722;SDS011;1369;53.216;10.396;2023-08-12T07:38:24;4.43;;;3.90;;
2722;SDS011;1369;53.216;10.396;2023-08-12T07:40:50;4.87;;;3.30;;
2722;SDS011;1369;53.216;10.396;2023-08-12T07:43:16;4.30;;;3.03;;
2722;SDS011;1369;53.216;10.396;2023-08-12T07:45:41;4.77;;;2.73;;
2722;SDS011;1369;53.216;10.396;2023-08-12T07:48:07;3.97;;;2.97;;
2722;SDS011;1369;53.216;10.396;2023-08-12T07:50:34;2.97;;;2.73;;
2722;SDS011;1369;53.216;10.396;2023-08-12T07:52:59;3.40;;;2.63;;
2722;SDS011;1369;53.216;10.396;2023-08-12T07:55:25;2.83;;;2.63;;
2722;SDS011;1369;53.216;10.396;2023-08-12T07:57:51;3.50;;;3.20;;
2722;SDS011;1369;53.216;10.396;2023-08-12T08:00:18;4.17;;;3.70;;
2722;SDS011;1369;53.216;10.396;2023-08-12T08:02:44;3.30;;;2.77;;
2722;SDS011;1369;53.216;10.396;2023-08-12T08:05:10;6.07;;;2.70;;
2722;SDS011;1369;53.216;10.396;2023-08-12T08:07:35;5.40;;;3.27;;
2722;SDS011;1369;53.216;10.396;2023-08-12T08:10:01;3.60;;;3.03;;
2722;SDS011;1369;53.216;10.396;2023-08-12T08:12:27;2.83;;;2.37;;
2722;SDS011;1369;53.216;10.396;2023-08-12T08:14:52;3.17;;;2.97;;
2722;SDS011;1369;53.216;10.396;2023-08-12T08:17:18;2.87;;;2.53;;
2722;SDS011;1369;53.216;10.396;2023-08-12T08:19:43;3.80;;;2.93;;
2722;SDS011;1369;53.216;10.396;2023-08-12T08:22:09;3.23;;;2.93;;
2722;SDS011;1369;53.216;10.396;2023-08-12T08:24:34;3.03;;;2.50;;
2722;SDS011;1369;53.216;10.396;2023-08-12T08:27:00;4.83;;;3.07;;
2722;SDS011;1369;53.216;10.396;2023-08-12T08:29:25;2.67;;;2.47;;
2722;SDS011;1369;53.216;10.396;2023-08-12T08:31:51;3.43;;;3.00;;
2722;SDS011;1369;53.216;10.396;2023-08-12T08:34:16;4.57;;;2.60;;
2722;SDS011;1369;53.216;10.396;2023-08-12T08:36:42;4.07;;;3.67;;
2722;SDS011;1369;53.216;10.396;2023-08-12T08:39:08;3.33;;;2.40;;
2722;SDS011;1369;53.216;10.396;2023-08-12T08:41:35;4.63;;;3.10;;
2722;SDS011;1369;53.216;10.396;2023-08-12T08:44:04;5.00;;;3.07;;
2722;SDS011;1369;53.216;10.396;2023-08-12T08:46:32;3.37;;;3.07;;
2722;SDS011;1369;53.216;10.396;2023-08-12T08:48:58;5.00;;;3.50;;
2722;SDS011;1369;53.216;10.396;2023-08-12T08:51:25;4.50;;;3.30;;
2722;SDS011;1369;53.216;10.396;2023-08-12T08:53:54;6.00;;;3.93;;
2722;SDS011;1369;53.216;10.396;2023-08-12T08:56:20;4.03;;;2.90;;
2722;SDS011;1369;53.216;10.396;2023-08-12T08:58:46;4.17;;;3.60;;
2722;SDS011;1369;53.216;10.396;2023-08-12T09:01:12;4.67;;;4.20;;
2722;SDS011;1369;53.216;10.396;2023-08-12T09:03:40;3.93;;;3.57;;
2722;SDS011;1369;53.216;10.396;2023-08-12T09:06:07;4.20;;;3.53;;
2722;SDS011;1369;53.216;10.396;2023-08-12T09:08:33;4.23;;;3.17;;
2722;SDS011;1369;53.216;10.396;2023-08-12T09:11:01;4.73;;;3.87;;
2722;SDS011;1369;53.216;10.396;2023-08-12T09:13:27;3.30;;;3.00;;
2722;SDS011;1369;53.216;10.396;2023-08-12T09:15:54;3.23;;;2.80;;
2722;SDS011;1369;53.216;10.396;2023-08-12T09:18:20;3.03;;;2.70;;
2722;SDS011;1369;53.216;10.396;2023-08-12T09:20:49;4.70;;;3.60;;
2722;SDS011;1369;53.216;10.396;2023-08-12T09:23:15;3.03;;;2.73;;
2722;SDS011;1369;53.216;10.396;2023-08-12T09:25:42;6.10;;;3.20;;
2722;SDS011;1369;53.216;10.396;2023-08-12T09:28:11;4.67;;;3.17;;
2722;SDS011;1369;53.216;10.396;2023-08-12T09:30:38;3.23;;;2.60;;
2722;SDS011;1369;53.216;10.396;2023-08-12T09:33:05;2.70;;;2.50;;
2722;SDS011;1369;53.216;10.396;2023-08-12T09:35:39;3.47;;;3.07;;
2722;SDS011;1369;53.216;10.396;2023-08-12T09:38:07;3.83;;;3.53;;
2722;SDS011;1369;53.216;10.396;2023-08-12T09:40:38;2.93;;;2.67;;
2722;SDS011;1369;53.216;10.396;2023-08-12T09:43:04;5.63;;;2.93;;
2722;SDS011;1369;53.216;10.396;2023-08-12T09:45:30;3.10;;;2.80;;
2722;SDS011;1369;53.216;10.396;2023-08-12T09:47:57;4.40;;;3.47;;
2722;SDS011;1369;53.216;10.396;2023-08-12T09:50:24;3.07;;;2.80;;
2722;SDS011;1369;53.216;10.396;2023-08-12T09:52:51;3.30;;;3.00;;
2722;SDS011;1369;53.216;10.396;2023-08-12T09:55:19;7.53;;;3.33;;
2722;SDS011;1369;53.216;10.396;2023-08-12T09:57:51;4.13;;;3.00;;
2722;SDS011;1369;53.216;10.396;2023-08-12T10:00:19;3.73;;;3.00;;
2722;SDS011;1369;53.216;10.396;2023-08-12T10:02:47;5.07;;;2.77;;
2722;SDS011;1369;53.216;10.396;2023-08-12T10:05:32;2.97;;;2.60;;
2722;SDS011;1369;53.216;10.396;2023-08-12T10:07:59;4.07;;;3.33;;
2722;SDS011;1369;53.216;10.396;2023-08-12T10:10:26;3.63;;;2.70;;
2722;SDS011;1369;53.216;10.396;2023-08-12T10:12:53;3.30;;;2.83;;
2722;SDS011;1369;53.216;10.396;2023-08-12T10:15:20;3.90;;;2.87;;
2722;SDS011;1369;53.216;10.396;2023-08-12T10:17:46;3.23;;;2.80;;
2722;SDS011;1369;53.216;10.396;2023-08-12T10:20:14;3.80;;;2.80;;
2722;SDS011;1369;53.216;10.396;2023-08-12T10:22:45;4.00;;;3.07;;
2722;SDS011;1369;53.216;10.396;2023-08-12T10:25:12;3.47;;;3.07;;
2722;SDS011;1369;53.216;10.396;2023-08-12T10:27:39;5.57;;;2.93;;
2722;SDS011;1369;53.216;10.396;2023-08-12T10:30:05;5.23;;;3.33;;
2722;SDS011;1369;53.216;10.396;2023-08-12T10:32:32;4.70;;;4.00;;
2722;SDS011;1369;53.216;10.396;2023-08-12T10:34:58;3.27;;;2.60;;
2722;SDS011;1369;53.216;10.396;2023-08-12T10:37:25;3.53;;;2.73;;
2722;SDS011;1369;53.216;10.396;2023-08-12T10:39:52;2.67;;;2.47;;
2722;SDS011;1369;53.216;10.396;2023-08-12T10:45:10;4.10;;;3.00;;
2722;SDS011;1369;53.216;10.396;2023-08-12T10:47:38;3.27;;;2.97;;
2722;SDS011;1369;53.216;10.396;2023-08-12T10:50:07;3.50;;;3.20;;
2722;SDS011;1369;53.216;10.396;2023-08-12T10:52:42;3.63;;;3.33;;
2722;SDS011;1369;53.216;10.396;2023-08-12T10:55:23;3.53;;;2.37;;
2722;SDS011;1369;53.216;10.396;2023-08-12T10:57:50;3.50;;;3.20;;
2722;SDS011;1369;53.216;10.396;2023-08-12T11:02:51;5.30;;;3.50;;
2722;SDS011;1369;53.216;10.396;2023-08-12T11:05:21;6.60;;;3.50;;
2722;SDS011;1369;53.216;10.396;2023-08-12T11:07:48;3.40;;;2.83;;
2722;SDS011;1369;53.216;10.396;2023-08-12T11:10:24;3.07;;;2.77;;
2722;SDS011;1369;53.216;10.396;2023-08-12T11:15:17;3.10;;;2.90;;
2722;SDS011;1369;53.216;10.396;2023-08-12T11:17:53;2.80;;;2.60;;
2722;SDS011;1369;53.216;10.396;2023-08-12T11:20:19;2.53;;;2.33;;
2722;SDS011;1369;53.216;10.396;2023-08-12T11:22:46;3.03;;;2.70;;
2722;SDS011;1369;53.216;10.396;2023-08-12T11:25:13;3.60;;;3.10;;
2722;SDS011;1369;53.216;10.396;2023-08-12T11:30:07;3.40;;;2.93;;
2722;SDS011;1369;53.216;10.396;2023-08-12T11:32:35;3.70;;;3.10;;
2722;SDS011;1369;53.216;10.396;2023-08-12T11:35:02;2.87;;;2.67;;
2722;SDS011;1369;53.216;10.396;2023-08-12T11:37:29;5.13;;;4.13;;
2722;SDS011;1369;53.216;10.396;2023-08-12T11:39:54;3.53;;;3.23;;
2722;SDS011;1369;53.216;10.396;2023-08-12T11:42:20;3.50;;;3.03;;
2722;SDS011;1369;53.216;10.396;2023-08-12T11:44:45;4.80;;;3.13;;
2722;SDS011;1369;53.216;10.396;2023-08-12T11:47:11;4.17;;;2.90;;
2722;SDS011;1369;53.216;10.396;2023-08-12T11:49:36;3.60;;;3.17;;
2722;SDS011;1369;53.216;10.396;2023-08-12T11:52:02;3.70;;;2.97;;
2722;SDS011;1369;53.216;10.396;2023-08-12T11:54:28;3.30;;;3.00;;
2722;SDS011;1369;53.216;10.396;2023-08-12T11:56:54;3.33;;;3.10;;
2722;SDS011;1369;53.216;10.396;2023-08-12T11:59:22;4.43;;;4.03;;
2722;SDS011;1369;53.216;10.396;2023-08-12T12:01:48;3.80;;;3.40;;
2722;SDS011;1369;53.216;10.396;2023-08-12T12:04:15;3.50;;;3.00;;
2722;SDS011;1369;53.216;10.396;2023-08-12T12:06:41;3.63;;;3.33;;
2722;SDS011;1369;53.216;10.396;2023-08-12T12:09:07;5.50;;;3.80;;
2722;SDS011;1369;53.216;10.396;2023-08-12T12:11:36;3.33;;;3.03;;
2722;SDS011;1369;53.216;10.396;2023-08-12T12:14:02;4.70;;;3.03;;
2722;SDS011;1369;53.216;10.396;2023-08-12T12:21:45;4.50;;;3.93;;
2722;SDS011;1369;53.216;10.396;2023-08-12T12:24:12;4.10;;;3.70;;
2722;SDS011;1369;53.216;10.396;2023-08-12T12:26:38;4.10;;;3.50;;
2722;SDS011;1369;53.216;10.396;2023-08-12T12:29:04;7.13;;;3.70;;
2722;SDS011;1369;53.216;10.396;2023-08-12T12:31:34;4.33;;;3.93;;
2722;SDS011;1369;53.216;10.396;2023-08-12T12:34:03;3.13;;;2.90;;
2722;SDS011;1369;53.216;10.396;2023-08-12T12:36:30;4.40;;;3.30;;
2722;SDS011;1369;53.216;10.396;2023-08-12T12:38:57;4.00;;;3.53;;
2722;SDS011;1369;53.216;10.396;2023-08-12T12:41:22;4.03;;;3.57;;
2722;SDS011;1369;53.216;10.396;2023-08-12T12:43:48;3.93;;;3.57;;
2722;SDS011;1369;53.216;10.396;2023-08-12T12:46:14;3.63;;;3.30;;
2722;SDS011;1369;53.216;10.396;2023-08-12T12:48:40;4.40;;;2.97;;
2722;SDS011;1369;53.216;10.396;2023-08-12T12:51:06;3.60;;;3.30;;
2722;SDS011;1369;53.216;10.396;2023-08-12T12:53:32;3.50;;;3.20;;
2722;SDS011;1369;53.216;10.396;2023-08-12T12:55:58;3.40;;;3.10;;
2722;SDS011;1369;53.216;10.396;2023-08-12T12:58:28;5.33;;;3.70;;
2722;SDS011;1369;53.216;10.396;2023-08-12T13:00:58;3.47;;;3.17;;
2722;SDS011;1369;53.216;10.396;2023-08-12T13:03:27;2.80;;;2.60;;
2722;SDS011;1369;53.216;10.396;2023-08-12T13:05:54;4.20;;;2.67;;
2722;SDS011;1369;53.216;10.396;2023-08-12T13:08:19;3.03;;;2.73;;
2722;SDS011;1369;53.216;10.396;2023-08-12T13:10:45;4.77;;;4.00;;
2722;SDS011;1369;53.216;10.396;2023-08-12T13:13:12;4.00;;;3.23;;
2722;SDS011;1369;53.216;10.396;2023-08-12T13:15:43;2.90;;;2.60;;
2722;SDS011;1369;53.216;10.396;2023-08-12T13:18:09;3.33;;;3.03;;
2722;SDS011;1369;53.216;10.396;2023-08-12T13:20:35;4.10;;;3.70;;
2722;SDS011;1369;53.216;10.396;2023-08-12T13:23:01;5.90;;;2.90;;
2722;SDS011;1369;53.216;10.396;2023-08-12T13:25:29;2.50;;;2.30;;
2722;SDS011;1369;53.216;10.396;2023-08-12T13:27:57;3.40;;;2.77;;
2722;SDS011;1369;53.216;10.396;2023-08-12T13:30:24;2.83;;;2.47;;
2722;SDS011;1369;53.216;10.396;2023-08-12T13:32:49;2.70;;;2.40;;
2722;SDS011;1369;53.216;10.396;2023-08-12T13:35:16;2.50;;;2.30;;
2722;SDS011;1369;53.216;10.396;2023-08-12T13:37:42;2.17;;;1.80;;
2722;SDS011;1369;53.216;10.396;2023-08-12T13:40:08;2.33;;;2.13;;
2722;SDS011;1369;53.216;10.396;2023-08-12T13:42:34;4.07;;;2.93;;
2722;SDS011;1369;53.216;10.396;2023-08-12T13:45:00;4.73;;;2.67;;
2722;SDS011;1369;53.216;10.396;2023-08-12T13:47:26;4.00;;;2.50;;
2722;SDS011;1369;53.216;10.396;2023-08-12T13:49:51;3.73;;;2.90;;
2722;SDS011;1369;53.216;10.396;2023-08-12T13:52:17;3.10;;;2.50;;
2722;SDS011;1369;53.216;10.396;2023-08-12T13:54:42;3.20;;;2.80;;
2722;SDS011;1369;53.216;10.396;2023-08-12T13:57:08;4.00;;;3.70;;
2722;SDS011;1369;53.216;10.396;2023-08-12T13:59:34;3.83;;;2.40;;
2722;SDS011;1369;53.216;10.396;2023-08-12T14:01:59;2.97;;;2.60;;
2722;SDS011;1369;53.216;10.396;2023-08-12T14:04:25;3.23;;;2.83;;
2722;SDS011;1369;53.216;10.396;2023-08-12T14:06:50;2.97;;;2.67;;
2722;SDS011;1369;53.216;10.396;2023-08-12T14:09:16;4.90;;;3.80;;
2722;SDS011;1369;53.216;10.396;2023-08-12T14:11:43;3.37;;;2.40;;
2722;SDS011;1369;53.216;10.396;2023-08-12T14:14:08;3.67;;;3.30;;
2722;SDS011;1369;53.216;10.396;2023-08-12T14:16:35;4.23;;;3.80;;
2722;SDS011;1369;53.216;10.396;2023-08-12T14:19:00;3.60;;;2.77;;
2722;SDS011;1369;53.216;10.396;2023-08-12T14:21:32;2.93;;;2.50;;
2722;SDS011;1369;53.216;10.396;2023-08-12T14:23:58;4.07;;;2.90;;
2722;SDS011;1369;53.216;10.396;2023-08-12T14:26:23;2.50;;;2.30;;
2722;SDS011;1369;53.216;10.396;2023-08-12T14:28:49;3.53;;;2.20;;
2722;SDS011;1369;53.216;10.396;2023-08-12T14:31:14;2.63;;;2.43;;
2722;SDS011;1369;53.216;10.396;2023-08-12T14:33:40;3.17;;;2.90;;
2722;SDS011;1369;53.216;10.396;2023-08-12T14:36:05;3.00;;;2.70;;
2722;SDS011;1369;53.216;10.396;2023-08-12T14:38:31;4.00;;;3.20;;
2722;SDS011;1369;53.216;10.396;2023-08-12T14:40:58;3.07;;;2.57;;
2722;SDS011;1369;53.216;10.396;2023-08-12T14:43:23;3.83;;;3.13;;
2722;SDS011;1369;53.216;10.396;2023-08-12T14:45:49;3.17;;;2.87;;
2722;SDS011;1369;53.216;10.396;2023-08-12T14:48:15;4.07;;;2.93;;
2722;SDS011;1369;53.216;10.396;2023-08-12T14:50:42;3.53;;;2.80;;
2722;SDS011;1369;53.216;10.396;2023-08-12T14:53:07;3.17;;;2.87;;
2722;SDS011;1369;53.216;10.396;2023-08-12T14:55:33;3.40;;;3.10;;
2722;SDS011;1369;53.216;10.396;2023-08-12T14:57:58;3.30;;;3.03;;
2722;SDS011;1369;53.216;10.396;2023-08-12T15:00:24;4.10;;;3.43;;
2722;SDS011;1369;53.216;10.396;2023-08-12T15:02:50;5.50;;;3.80;;
2722;SDS011;1369;53.216;10.396;2023-08-12T15:05:16;4.17;;;3.77;;
2722;SDS011;1369;53.216;10.396;2023-08-12T15:07:42;3.27;;;2.90;;
2722;SDS011;1369;53.216;10.396;2023-08-12T15:10:08;2.70;;;2.40;;
2722;SDS011;1369;53.216;10.396;2023-08-12T15:12:34;3.23;;;2.93;;
2722;SDS011;1369;53.216;10.396;2023-08-12T15:15:00;2.60;;;2.40;;
2722;SDS011;1369;53.216;10.396;2023-08-12T15:17:25;3.40;;;2.33;;